sensor_id;sensor_type;location;lat;lon;timestamp;temperature;humidity
13982;DHT22;7065;50.880;5.502;2022-12-16T00:00:16;-7.30;99.90
13982;DHT22;7065;50.880;5.502;2022-12-16T00:02:42;-7.30;99.90
13982;DHT22;7065;50.880;5.502;2022-12-16T00:05:08;-7.30;99.90
13982;DHT22;7065;50.880;5.502;2022-12-16T00:07:34;-7.40;99.90
13982;DHT22;7065;50.880;5.502;2022-12-16T00:10:00;-7.40;99.90
13982;DHT22;7065;50.880;5.502;2022-12-16T00:12:25;-7.30;99.90
13982;DHT22;7065;50.880;5.502;2022-12-16T00:14:52;-7.30;99.90
13982;DHT22;7065;50.880;5.502;2022-12-16T00:17:17;-7.20;99.90
13982;DHT22;7065;50.880;5.502;2022-12-16T00:19:43;-7.20;99.90
13982;DHT22;7065;50.880;5.502;2022-12-16T00:22:09;-7.20;99.90
13982;DHT22;7065;50.880;5.502;2022-12-16T00:24:34;-7.20;99.90
13982;DHT22;7065;50.880;5.502;2022-12-16T00:27:00;-7.20;99.90
13982;DHT22;7065;50.880;5.502;2022-12-16T00:29:26;-7.20;99.90
13982;DHT22;7065;50.880;5.502;2022-12-16T00:31:51;-7.20;99.90
13982;DHT22;7065;50.880;5.502;2022-12-16T00:34:17;-7.30;99.90
13982;DHT22;7065;50.880;5.502;2022-12-16T00:36:43;-7.30;99.90
13982;DHT22;7065;50.880;5.502;2022-12-16T00:39:10;-7.30;99.90
13982;DHT22;7065;50.880;5.502;2022-12-16T00:41:36;-7.30;99.90
13982;DHT22;7065;50.880;5.502;2022-12-16T00:44:02;-7.30;99.90
13982;DHT22;7065;50.880;5.502;2022-12-16T00:46:28;-7.20;99.90
13982;DHT22;7065;50.880;5.502;2022-12-16T00:48:54;-7.20;99.90
13982;DHT22;7065;50.880;5.502;2022-12-16T00:51:20;-7.20;99.90
13982;DHT22;7065;50.880;5.502;2022-12-16T00:53:46;-7.20;99.90
13982;DHT22;7065;50.880;5.502;2022-12-16T00:56:13;-7.20;99.90
13982;DHT22;7065;50.880;5.502;2022-12-16T00:58:44;-7.20;99.90
13982;DHT22;7065;50.880;5.502;2022-12-16T01:01:11;-7.10;99.90
13982;DHT22;7065;50.880;5.502;2022-12-16T01:03:37;-7.10;99.90
13982;DHT22;7065;50.880;5.502;2022-12-16T01:06:08;-7.10;99.90
13982;DHT22;7065;50.880;5.502;2022-12-16T01:08:34;-7.10;99.90
13982;DHT22;7065;50.880;5.502;2022-12-16T01:10:59;-7.00;99.90
13982;DHT22;7065;50.880;5.502;2022-12-16T01:13:25;-7.00;99.90
13982;DHT22;7065;50.880;5.502;2022-12-16T01:15:51;-6.90;99.90
13982;DHT22;7065;50.880;5.502;2022-12-16T01:18:17;-6.90;99.90
13982;DHT22;7065;50.880;5.502;2022-12-16T01:20:43;-6.80;99.90
13982;DHT22;7065;50.880;5.502;2022-12-16T01:23:09;-6.70;99.90
13982;DHT22;7065;50.880;5.502;2022-12-16T01:25:34;-6.60;99.90
13982;DHT22;7065;50.880;5.502;2022-12-16T01:28:00;-6.70;99.90
13982;DHT22;7065;50.880;5.502;2022-12-16T01:30:26;-6.60;99.90
13982;DHT22;7065;50.880;5.502;2022-12-16T01:32:52;-6.60;99.90
13982;DHT22;7065;50.880;5.502;2022-12-16T01:35:18;-6.70;99.90
13982;DHT22;7065;50.880;5.502;2022-12-16T01:37:44;-6.70;99.90
13982;DHT22;7065;50.880;5.502;2022-12-16T01:40:21;-6.70;99.90
13982;DHT22;7065;50.880;5.502;2022-12-16T01:42:47;-6.70;99.90
13982;DHT22;7065;50.880;5.502;2022-12-16T01:45:28;-6.70;99.90
13982;DHT22;7065;50.880;5.502;2022-12-16T01:47:58;-6.70;99.90
13982;DHT22;7065;50.880;5.502;2022-12-16T01:50:25;-6.70;99.90
13982;DHT22;7065;50.880;5.502;2022-12-16T01:52:56;-6.70;99.90
13982;DHT22;7065;50.880;5.502;2022-12-16T01:55:27;-6.60;99.90
13982;DHT22;7065;50.880;5.502;2022-12-16T01:57:58;-6.60;99.90
13982;DHT22;7065;50.880;5.502;2022-12-16T02:00:25;-6.50;99.90
13982;DHT22;7065;50.880;5.502;2022-12-16T02:02:52;-6.50;99.90
13982;DHT22;7065;50.880;5.502;2022-12-16T02:05:18;-6.40;99.90
13982;DHT22;7065;50.880;5.502;2022-12-16T02:08:00;-6.40;99.90
13982;DHT22;7065;50.880;5.502;2022-12-16T02:16:38;-6.40;99.90
13982;DHT22;7065;50.880;5.502;2022-12-16T02:31:00;-6.70;99.90
13982;DHT22;7065;50.880;5.502;2022-12-16T02:33:48;-6.70;99.90
13982;DHT22;7065;50.880;5.502;2022-12-16T02:39:22;-6.70;99.90
13982;DHT22;7065;50.880;5.502;2022-12-16T02:41:56;-6.70;99.90
13982;DHT22;7065;50.880;5.502;2022-12-16T02:44:47;-6.70;99.90
13982;DHT22;7065;50.880;5.502;2022-12-16T02:47:17;-6.70;99.90
13982;DHT22;7065;50.880;5.502;2022-12-16T02:49:46;-6.70;99.90
13982;DHT22;7065;50.880;5.502;2022-12-16T02:52:13;-6.70;99.90
13982;DHT22;7065;50.880;5.502;2022-12-16T02:54:39;-6.60;99.90
13982;DHT22;7065;50.880;5.502;2022-12-16T03:00:10;-6.60;99.90
13982;DHT22;7065;50.880;5.502;2022-12-16T03:02:48;-6.60;99.90
13982;DHT22;7065;50.880;5.502;2022-12-16T03:05:27;-6.50;99.90
13982;DHT22;7065;50.880;5.502;2022-12-16T03:07:57;-6.50;99.90
13982;DHT22;7065;50.880;5.502;2022-12-16T03:10:28;-6.50;99.90
13982;DHT22;7065;50.880;5.502;2022-12-16T03:12:55;-6.60;99.90
13982;DHT22;7065;50.880;5.502;2022-12-16T03:15:25;-6.60;99.90
13982;DHT22;7065;50.880;5.502;2022-12-16T03:17:51;-6.60;99.90
13982;DHT22;7065;50.880;5.502;2022-12-16T03:20:27;-6.60;99.90
13982;DHT22;7065;50.880;5.502;2022-12-16T03:22:58;-6.60;99.90
13982;DHT22;7065;50.880;5.502;2022-12-16T03:25:26;-6.70;99.90
13982;DHT22;7065;50.880;5.502;2022-12-16T03:30:27;-6.70;99.90
13982;DHT22;7065;50.880;5.502;2022-12-16T03:35:41;-6.70;99.90
13982;DHT22;7065;50.880;5.502;2022-12-16T03:38:10;-6.80;99.90
13982;DHT22;7065;50.880;5.502;2022-12-16T03:40:38;-6.80;99.90
13982;DHT22;7065;50.880;5.502;2022-12-16T03:43:06;-6.80;99.90
13982;DHT22;7065;50.880;5.502;2022-12-16T03:45:37;-6.80;99.90
13982;DHT22;7065;50.880;5.502;2022-12-16T03:48:05;-6.80;99.90
13982;DHT22;7065;50.880;5.502;2022-12-16T03:50:33;-6.80;99.90
13982;DHT22;7065;50.880;5.502;2022-12-16T03:53:01;-6.80;99.90
13982;DHT22;7065;50.880;5.502;2022-12-16T03:55:27;-6.90;99.90
13982;DHT22;7065;50.880;5.502;2022-12-16T03:57:53;-6.90;99.90
13982;DHT22;7065;50.880;5.502;2022-12-16T04:00:19;-7.00;99.90
13982;DHT22;7065;50.880;5.502;2022-12-16T04:02:46;-7.00;99.90
13982;DHT22;7065;50.880;5.502;2022-12-16T04:05:12;-7.10;99.90
13982;DHT22;7065;50.880;5.502;2022-12-16T04:07:38;-7.00;99.90
13982;DHT22;7065;50.880;5.502;2022-12-16T04:10:05;-7.00;99.90
13982;DHT22;7065;50.880;5.502;2022-12-16T04:12:31;-7.10;99.90
13982;DHT22;7065;50.880;5.502;2022-12-16T04:15:15;-7.10;99.90
13982;DHT22;7065;50.880;5.502;2022-12-16T04:17:44;-7.20;99.90
13982;DHT22;7065;50.880;5.502;2022-12-16T04:20:31;-7.20;99.90
13982;DHT22;7065;50.880;5.502;2022-12-16T04:23:16;-7.10;99.90
13982;DHT22;7065;50.880;5.502;2022-12-16T04:26:02;-7.10;99.90
13982;DHT22;7065;50.880;5.502;2022-12-16T04:28:27;-7.10;99.90
13982;DHT22;7065;50.880;5.502;2022-12-16T04:30:53;-7.20;99.90
13982;DHT22;7065;50.880;5.502;2022-12-16T04:33:19;-7.20;99.90
13982;DHT22;7065;50.880;5.502;2022-12-16T04:36:04;-7.20;99.90
13982;DHT22;7065;50.880;5.502;2022-12-16T04:38:48;-7.30;99.90
13982;DHT22;7065;50.880;5.502;2022-12-16T04:41:32;-7.20;99.90
13982;DHT22;7065;50.880;5.502;2022-12-16T04:44:16;-7.20;99.90
13982;DHT22;7065;50.880;5.502;2022-12-16T04:47:00;-7.20;99.90
13982;DHT22;7065;50.880;5.502;2022-12-16T04:49:44;-7.10;99.90
13982;DHT22;7065;50.880;5.502;2022-12-16T04:52:28;-7.00;99.90
13982;DHT22;7065;50.880;5.502;2022-12-16T04:55:12;-6.90;99.90
13982;DHT22;7065;50.880;5.502;2022-12-16T04:57:58;-6.80;99.90
13982;DHT22;7065;50.880;5.502;2022-12-16T05:00:44;-6.60;99.90
13982;DHT22;7065;50.880;5.502;2022-12-16T05:03:29;-6.50;99.90
13982;DHT22;7065;50.880;5.502;2022-12-16T05:06:13;-6.30;99.90
13982;DHT22;7065;50.880;5.502;2022-12-16T05:08:58;-6.20;99.90
13982;DHT22;7065;50.880;5.502;2022-12-16T05:11:42;-6.00;99.90
13982;DHT22;7065;50.880;5.502;2022-12-16T05:14:26;-6.00;99.90
13982;DHT22;7065;50.880;5.502;2022-12-16T05:17:10;-5.80;99.90
13982;DHT22;7065;50.880;5.502;2022-12-16T05:19:54;-5.70;99.90
13982;DHT22;7065;50.880;5.502;2022-12-16T05:22:39;-5.60;99.90
13982;DHT22;7065;50.880;5.502;2022-12-16T05:25:23;-5.50;99.90
13982;DHT22;7065;50.880;5.502;2022-12-16T05:28:07;-5.30;99.90
13982;DHT22;7065;50.880;5.502;2022-12-16T05:30:51;-5.20;99.90
13982;DHT22;7065;50.880;5.502;2022-12-16T05:33:36;-5.10;99.90
13982;DHT22;7065;50.880;5.502;2022-12-16T05:36:20;-5.00;99.90
13982;DHT22;7065;50.880;5.502;2022-12-16T05:39:04;-5.00;99.90
13982;DHT22;7065;50.880;5.502;2022-12-16T05:41:49;-4.80;99.90
13982;DHT22;7065;50.880;5.502;2022-12-16T05:44:33;-4.80;99.90
13982;DHT22;7065;50.880;5.502;2022-12-16T05:47:17;-4.70;99.90
13982;DHT22;7065;50.880;5.502;2022-12-16T05:50:01;-4.70;99.90
13982;DHT22;7065;50.880;5.502;2022-12-16T05:52:49;-4.70;99.90
13982;DHT22;7065;50.880;5.502;2022-12-16T05:55:34;-4.70;99.90
13982;DHT22;7065;50.880;5.502;2022-12-16T05:58:18;-4.60;99.90
13982;DHT22;7065;50.880;5.502;2022-12-16T06:01:02;-4.60;99.90
13982;DHT22;7065;50.880;5.502;2022-12-16T06:03:47;-4.60;99.90
13982;DHT22;7065;50.880;5.502;2022-12-16T06:06:31;-4.60;99.90
13982;DHT22;7065;50.880;5.502;2022-12-16T06:09:15;-4.50;99.90
13982;DHT22;7065;50.880;5.502;2022-12-16T06:11:59;-4.40;99.90
13982;DHT22;7065;50.880;5.502;2022-12-16T06:14:43;-4.40;99.90
13982;DHT22;7065;50.880;5.502;2022-12-16T06:17:27;-4.40;99.90
13982;DHT22;7065;50.880;5.502;2022-12-16T06:20:11;-4.40;99.90
13982;DHT22;7065;50.880;5.502;2022-12-16T06:22:55;-4.40;99.90
13982;DHT22;7065;50.880;5.502;2022-12-16T06:25:39;-4.40;99.90
13982;DHT22;7065;50.880;5.502;2022-12-16T06:28:23;-4.40;99.90
13982;DHT22;7065;50.880;5.502;2022-12-16T06:31:08;-4.40;99.90
13982;DHT22;7065;50.880;5.502;2022-12-16T06:33:53;-4.40;99.90
13982;DHT22;7065;50.880;5.502;2022-12-16T06:36:37;-4.40;99.90
13982;DHT22;7065;50.880;5.502;2022-12-16T06:39:22;-4.40;99.90
13982;DHT22;7065;50.880;5.502;2022-12-16T06:42:07;-4.30;99.90
13982;DHT22;7065;50.880;5.502;2022-12-16T06:44:51;-4.30;99.90
13982;DHT22;7065;50.880;5.502;2022-12-16T06:47:37;-4.30;99.90
13982;DHT22;7065;50.880;5.502;2022-12-16T06:50:22;-4.20;99.90
13982;DHT22;7065;50.880;5.502;2022-12-16T06:53:06;-4.20;99.90
13982;DHT22;7065;50.880;5.502;2022-12-16T06:55:50;-4.10;99.90
13982;DHT22;7065;50.880;5.502;2022-12-16T06:58:34;-4.10;99.90
13982;DHT22;7065;50.880;5.502;2022-12-16T07:01:25;-4.00;99.90
13982;DHT22;7065;50.880;5.502;2022-12-16T07:04:10;-4.00;99.90
13982;DHT22;7065;50.880;5.502;2022-12-16T07:06:54;-3.90;99.90
13982;DHT22;7065;50.880;5.502;2022-12-16T07:09:38;-3.90;99.90
13982;DHT22;7065;50.880;5.502;2022-12-16T07:12:22;-3.80;99.90
13982;DHT22;7065;50.880;5.502;2022-12-16T07:15:07;-3.80;99.90
13982;DHT22;7065;50.880;5.502;2022-12-16T07:17:51;-3.80;99.90
13982;DHT22;7065;50.880;5.502;2022-12-16T07:20:35;-3.70;99.90
13982;DHT22;7065;50.880;5.502;2022-12-16T07:23:20;-3.70;99.90
13982;DHT22;7065;50.880;5.502;2022-12-16T07:26:05;-3.60;99.90
13982;DHT22;7065;50.880;5.502;2022-12-16T07:28:49;-3.60;99.90
13982;DHT22;7065;50.880;5.502;2022-12-16T07:31:33;-3.60;99.90
13982;DHT22;7065;50.880;5.502;2022-12-16T07:34:17;-3.60;99.90
13982;DHT22;7065;50.880;5.502;2022-12-16T07:37:01;-3.60;99.90
13982;DHT22;7065;50.880;5.502;2022-12-16T07:39:45;-3.60;99.90
13982;DHT22;7065;50.880;5.502;2022-12-16T07:42:29;-3.60;99.90
13982;DHT22;7065;50.880;5.502;2022-12-16T07:45:13;-3.50;99.90
13982;DHT22;7065;50.880;5.502;2022-12-16T07:47:58;-3.50;99.90
13982;DHT22;7065;50.880;5.502;2022-12-16T07:50:42;-3.50;99.90
13982;DHT22;7065;50.880;5.502;2022-12-16T07:53:26;-3.50;99.90
13982;DHT22;7065;50.880;5.502;2022-12-16T07:56:10;-3.50;99.90
13982;DHT22;7065;50.880;5.502;2022-12-16T07:58:54;-3.50;99.90
13982;DHT22;7065;50.880;5.502;2022-12-16T08:01:39;-3.40;99.90
13982;DHT22;7065;50.880;5.502;2022-12-16T08:04:23;-3.40;99.90
13982;DHT22;7065;50.880;5.502;2022-12-16T08:07:07;-3.40;99.90
13982;DHT22;7065;50.880;5.502;2022-12-16T08:09:51;-3.30;99.90
13982;DHT22;7065;50.880;5.502;2022-12-16T08:12:35;-3.30;99.90
13982;DHT22;7065;50.880;5.502;2022-12-16T08:15:19;-3.30;99.90
13982;DHT22;7065;50.880;5.502;2022-12-16T08:18:03;-3.20;99.90
13982;DHT22;7065;50.880;5.502;2022-12-16T08:20:47;-3.20;99.90
13982;DHT22;7065;50.880;5.502;2022-12-16T08:23:31;-3.20;99.90
13982;DHT22;7065;50.880;5.502;2022-12-16T08:26:16;-3.10;99.90
13982;DHT22;7065;50.880;5.502;2022-12-16T08:29:00;-3.10;99.90
13982;DHT22;7065;50.880;5.502;2022-12-16T08:31:44;-3.10;99.90
13982;DHT22;7065;50.880;5.502;2022-12-16T08:34:28;-3.00;99.90
13982;DHT22;7065;50.880;5.502;2022-12-16T08:37:12;-3.00;99.90
13982;DHT22;7065;50.880;5.502;2022-12-16T08:39:56;-3.00;99.90
13982;DHT22;7065;50.880;5.502;2022-12-16T08:42:41;-3.00;99.90
13982;DHT22;7065;50.880;5.502;2022-12-16T08:45:26;-2.90;99.90
13982;DHT22;7065;50.880;5.502;2022-12-16T08:48:10;-2.90;99.90
13982;DHT22;7065;50.880;5.502;2022-12-16T08:50:55;-2.90;99.90
13982;DHT22;7065;50.880;5.502;2022-12-16T08:53:39;-2.80;99.90
13982;DHT22;7065;50.880;5.502;2022-12-16T08:56:23;-2.80;99.90
13982;DHT22;7065;50.880;5.502;2022-12-16T08:59:08;-2.80;99.90
13982;DHT22;7065;50.880;5.502;2022-12-16T09:01:52;-2.70;99.90
13982;DHT22;7065;50.880;5.502;2022-12-16T09:04:36;-2.70;99.90
13982;DHT22;7065;50.880;5.502;2022-12-16T09:07:20;-2.70;99.90
13982;DHT22;7065;50.880;5.502;2022-12-16T09:10:05;-2.70;99.90
13982;DHT22;7065;50.880;5.502;2022-12-16T09:12:49;-2.60;99.90
13982;DHT22;7065;50.880;5.502;2022-12-16T09:15:33;-2.60;99.90
13982;DHT22;7065;50.880;5.502;2022-12-16T09:18:17;-2.60;99.90
13982;DHT22;7065;50.880;5.502;2022-12-16T09:21:01;-2.50;99.90
13982;DHT22;7065;50.880;5.502;2022-12-16T09:23:45;-2.50;99.90
13982;DHT22;7065;50.880;5.502;2022-12-16T09:26:30;-2.50;99.90
13982;DHT22;7065;50.880;5.502;2022-12-16T09:29:14;-2.40;99.90
13982;DHT22;7065;50.880;5.502;2022-12-16T09:31:58;-2.40;99.90
13982;DHT22;7065;50.880;5.502;2022-12-16T09:34:42;-2.30;99.90
13982;DHT22;7065;50.880;5.502;2022-12-16T09:37:26;-2.20;99.90
13982;DHT22;7065;50.880;5.502;2022-12-16T09:40:15;-2.20;99.90
13982;DHT22;7065;50.880;5.502;2022-12-16T09:46:02;-2.10;99.90
13982;DHT22;7065;50.880;5.502;2022-12-16T09:51:56;-2.00;99.90
13982;DHT22;7065;50.880;5.502;2022-12-16T09:54:41;-2.00;99.90
13982;DHT22;7065;50.880;5.502;2022-12-16T09:57:29;-1.90;99.90
13982;DHT22;7065;50.880;5.502;2022-12-16T10:00:21;-1.80;99.90
13982;DHT22;7065;50.880;5.502;2022-12-16T10:03:15;-1.80;99.90
13982;DHT22;7065;50.880;5.502;2022-12-16T10:22:28;-1.50;99.90
13982;DHT22;7065;50.880;5.502;2022-12-16T10:25:14;-1.50;99.90
13982;DHT22;7065;50.880;5.502;2022-12-16T10:28:33;-1.40;99.90
13982;DHT22;7065;50.880;5.502;2022-12-16T10:31:19;-1.40;99.90
13982;DHT22;7065;50.880;5.502;2022-12-16T10:34:13;-1.40;99.90
13982;DHT22;7065;50.880;5.502;2022-12-16T10:36:57;-1.40;99.90
13982;DHT22;7065;50.880;5.502;2022-12-16T10:39:46;-1.40;99.90
13982;DHT22;7065;50.880;5.502;2022-12-16T10:42:36;-1.30;99.90
13982;DHT22;7065;50.880;5.502;2022-12-16T10:45:27;-1.30;99.90
13982;DHT22;7065;50.880;5.502;2022-12-16T10:48:13;-1.30;99.90
13982;DHT22;7065;50.880;5.502;2022-12-16T10:50:59;-1.30;99.90
13982;DHT22;7065;50.880;5.502;2022-12-16T10:53:45;-1.20;99.90
13982;DHT22;7065;50.880;5.502;2022-12-16T10:56:57;-1.20;99.90
13982;DHT22;7065;50.880;5.502;2022-12-16T10:59:44;-1.20;99.90
13982;DHT22;7065;50.880;5.502;2022-12-16T11:02:28;-1.10;99.90
13982;DHT22;7065;50.880;5.502;2022-12-16T11:08:33;-1.00;99.90
13982;DHT22;7065;50.880;5.502;2022-12-16T11:11:24;-1.00;99.90
13982;DHT22;7065;50.880;5.502;2022-12-16T11:20:17;-0.80;99.90
13982;DHT22;7065;50.880;5.502;2022-12-16T11:26:25;-0.80;99.90
13982;DHT22;7065;50.880;5.502;2022-12-16T11:29:13;-0.70;99.90
13982;DHT22;7065;50.880;5.502;2022-12-16T11:32:02;-0.70;99.90
13982;DHT22;7065;50.880;5.502;2022-12-16T11:34:52;-0.70;99.90
13982;DHT22;7065;50.880;5.502;2022-12-16T11:37:39;-0.60;99.90
13982;DHT22;7065;50.880;5.502;2022-12-16T11:40:24;-0.60;99.90
13982;DHT22;7065;50.880;5.502;2022-12-16T11:43:12;-0.50;99.90
13982;DHT22;7065;50.880;5.502;2022-12-16T11:46:00;-0.60;99.90
13982;DHT22;7065;50.880;5.502;2022-12-16T11:49:00;-0.50;99.90
13982;DHT22;7065;50.880;5.502;2022-12-16T11:51:56;-0.50;99.90
13982;DHT22;7065;50.880;5.502;2022-12-16T11:54:57;-0.50;99.90
13982;DHT22;7065;50.880;5.502;2022-12-16T11:57:54;-0.50;99.90
13982;DHT22;7065;50.880;5.502;2022-12-16T12:00:53;-0.50;99.90
13982;DHT22;7065;50.880;5.502;2022-12-16T12:03:43;-0.50;99.90
13982;DHT22;7065;50.880;5.502;2022-12-16T12:09:38;-0.50;99.90
13982;DHT22;7065;50.880;5.502;2022-12-16T12:21:25;-0.40;99.90
13982;DHT22;7065;50.880;5.502;2022-12-16T12:32:59;-0.30;99.90
13982;DHT22;7065;50.880;5.502;2022-12-16T12:36:14;-0.20;99.90
13982;DHT22;7065;50.880;5.502;2022-12-16T12:39:02;-0.10;99.90
13982;DHT22;7065;50.880;5.502;2022-12-16T12:42:03;-0.10;99.90
13982;DHT22;7065;50.880;5.502;2022-12-16T12:44:58;0.00;99.90
13982;DHT22;7065;50.880;5.502;2022-12-16T12:51:10;0.10;99.90
13982;DHT22;7065;50.880;5.502;2022-12-16T12:56:58;0.30;99.90
13982;DHT22;7065;50.880;5.502;2022-12-16T13:02:47;0.50;99.90
13982;DHT22;7065;50.880;5.502;2022-12-16T13:05:36;0.50;99.90
13982;DHT22;7065;50.880;5.502;2022-12-16T13:11:35;0.60;99.90
13982;DHT22;7065;50.880;5.502;2022-12-16T13:17:16;0.60;99.90
13982;DHT22;7065;50.880;5.502;2022-12-16T13:20:02;0.60;99.90
13982;DHT22;7065;50.880;5.502;2022-12-16T13:22:48;0.60;99.90
13982;DHT22;7065;50.880;5.502;2022-12-16T13:25:36;0.70;99.90
13982;DHT22;7065;50.880;5.502;2022-12-16T13:28:22;0.60;99.90
13982;DHT22;7065;50.880;5.502;2022-12-16T13:31:08;0.60;99.90
13982;DHT22;7065;50.880;5.502;2022-12-16T13:33:53;0.60;99.90
13982;DHT22;7065;50.880;5.502;2022-12-16T13:36:40;0.50;99.90
13982;DHT22;7065;50.880;5.502;2022-12-16T13:39:28;0.50;99.90
13982;DHT22;7065;50.880;5.502;2022-12-16T13:45:31;0.50;99.90
13982;DHT22;7065;50.880;5.502;2022-12-16T13:48:36;0.50;99.90
13982;DHT22;7065;50.880;5.502;2022-12-16T13:54:45;0.50;99.90
13982;DHT22;7065;50.880;5.502;2022-12-16T13:57:35;0.40;99.90
13982;DHT22;7065;50.880;5.502;2022-12-16T14:00:37;0.40;99.90
13982;DHT22;7065;50.880;5.502;2022-12-16T14:03:32;0.30;99.90
13982;DHT22;7065;50.880;5.502;2022-12-16T14:06:23;0.40;99.90
13982;DHT22;7065;50.880;5.502;2022-12-16T14:09:40;0.40;99.90
13982;DHT22;7065;50.880;5.502;2022-12-16T14:12:38;0.40;99.90
13982;DHT22;7065;50.880;5.502;2022-12-16T14:15:43;0.40;99.90
13982;DHT22;7065;50.880;5.502;2022-12-16T14:21:39;0.40;99.90
13982;DHT22;7065;50.880;5.502;2022-12-16T14:24:26;0.40;99.90
13982;DHT22;7065;50.880;5.502;2022-12-16T14:27:17;0.40;99.90
13982;DHT22;7065;50.880;5.502;2022-12-16T14:30:20;0.40;99.90
13982;DHT22;7065;50.880;5.502;2022-12-16T14:33:24;0.30;99.90
13982;DHT22;7065;50.880;5.502;2022-12-16T14:36:27;0.40;99.90
13982;DHT22;7065;50.880;5.502;2022-12-16T14:39:19;0.30;99.90
13982;DHT22;7065;50.880;5.502;2022-12-16T14:45:00;0.30;99.90
13982;DHT22;7065;50.880;5.502;2022-12-16T14:47:44;0.30;99.90
13982;DHT22;7065;50.880;5.502;2022-12-16T14:50:29;0.30;99.90
13982;DHT22;7065;50.880;5.502;2022-12-16T14:53:22;0.30;99.90
13982;DHT22;7065;50.880;5.502;2022-12-16T14:56:19;0.30;99.90
13982;DHT22;7065;50.880;5.502;2022-12-16T15:01:54;0.40;99.90
13982;DHT22;7065;50.880;5.502;2022-12-16T15:04:40;0.40;99.90
13982;DHT22;7065;50.880;5.502;2022-12-16T15:07:28;0.30;99.90
13982;DHT22;7065;50.880;5.502;2022-12-16T15:10:17;0.30;99.90
13982;DHT22;7065;50.880;5.502;2022-12-16T15:13:03;0.30;99.90
13982;DHT22;7065;50.880;5.502;2022-12-16T15:15:48;0.20;99.90
13982;DHT22;7065;50.880;5.502;2022-12-16T15:18:33;0.20;99.90
13982;DHT22;7065;50.880;5.502;2022-12-16T15:21:20;0.20;99.90
13982;DHT22;7065;50.880;5.502;2022-12-16T15:24:15;0.20;99.90
13982;DHT22;7065;50.880;5.502;2022-12-16T15:33:22;0.10;99.90
13982;DHT22;7065;50.880;5.502;2022-12-16T15:39:37;0.00;99.90
13982;DHT22;7065;50.880;5.502;2022-12-16T15:42:28;0.00;99.90
13982;DHT22;7065;50.880;5.502;2022-12-16T15:45:25;0.00;99.90
13982;DHT22;7065;50.880;5.502;2022-12-16T15:48:28;0.00;99.90
13982;DHT22;7065;50.880;5.502;2022-12-16T15:54:21;0.00;99.90
13982;DHT22;7065;50.880;5.502;2022-12-16T15:57:24;-0.10;99.90
13982;DHT22;7065;50.880;5.502;2022-12-16T16:03:02;-0.20;99.90
13982;DHT22;7065;50.880;5.502;2022-12-16T16:05:47;-0.30;99.90
13982;DHT22;7065;50.880;5.502;2022-12-16T16:08:31;-0.30;99.90
13982;DHT22;7065;50.880;5.502;2022-12-16T16:11:15;-0.40;99.90
13982;DHT22;7065;50.880;5.502;2022-12-16T16:13:59;-0.40;99.90
13982;DHT22;7065;50.880;5.502;2022-12-16T16:16:43;-0.50;99.90
13982;DHT22;7065;50.880;5.502;2022-12-16T16:19:27;-0.60;99.90
13982;DHT22;7065;50.880;5.502;2022-12-16T16:22:14;-0.60;99.90
13982;DHT22;7065;50.880;5.502;2022-12-16T16:24:58;-0.70;99.90
13982;DHT22;7065;50.880;5.502;2022-12-16T16:27:47;-0.80;99.90
13982;DHT22;7065;50.880;5.502;2022-12-16T16:30:32;-0.90;99.90
13982;DHT22;7065;50.880;5.502;2022-12-16T16:33:16;-0.90;99.90
13982;DHT22;7065;50.880;5.502;2022-12-16T16:36:14;-1.00;99.90
13982;DHT22;7065;50.880;5.502;2022-12-16T16:38:58;-1.00;99.90
13982;DHT22;7065;50.880;5.502;2022-12-16T16:41:43;-1.00;99.90
13982;DHT22;7065;50.880;5.502;2022-12-16T16:44:27;-1.10;99.90
13982;DHT22;7065;50.880;5.502;2022-12-16T16:47:15;-1.10;99.90
13982;DHT22;7065;50.880;5.502;2022-12-16T16:50:00;-1.10;99.90
13982;DHT22;7065;50.880;5.502;2022-12-16T16:52:44;-1.20;99.90
13982;DHT22;7065;50.880;5.502;2022-12-16T16:55:28;-1.20;99.90
13982;DHT22;7065;50.880;5.502;2022-12-16T16:58:19;-1.20;99.90
13982;DHT22;7065;50.880;5.502;2022-12-16T17:01:07;-1.30;99.90
13982;DHT22;7065;50.880;5.502;2022-12-16T17:03:52;-1.30;99.90
13982;DHT22;7065;50.880;5.502;2022-12-16T17:06:36;-1.30;99.90
13982;DHT22;7065;50.880;5.502;2022-12-16T17:09:20;-1.30;99.90
13982;DHT22;7065;50.880;5.502;2022-12-16T17:12:20;-1.30;99.90
13982;DHT22;7065;50.880;5.502;2022-12-16T17:15:18;-1.30;99.90
13982;DHT22;7065;50.880;5.502;2022-12-16T17:18:03;-1.20;99.90
13982;DHT22;7065;50.880;5.502;2022-12-16T17:20:47;-1.20;99.90
13982;DHT22;7065;50.880;5.502;2022-12-16T17:23:31;-1.10;99.90
13982;DHT22;7065;50.880;5.502;2022-12-16T17:26:16;-1.10;99.90
13982;DHT22;7065;50.880;5.502;2022-12-16T17:29:01;-1.10;99.90
13982;DHT22;7065;50.880;5.502;2022-12-16T17:31:45;-1.00;99.90
13982;DHT22;7065;50.880;5.502;2022-12-16T17:34:34;-1.00;99.90
13982;DHT22;7065;50.880;5.502;2022-12-16T17:37:18;-1.00;99.90
13982;DHT22;7065;50.880;5.502;2022-12-16T17:40:03;-1.00;99.90
13982;DHT22;7065;50.880;5.502;2022-12-16T17:42:47;-0.90;99.90
13982;DHT22;7065;50.880;5.502;2022-12-16T17:45:31;-0.90;99.90
13982;DHT22;7065;50.880;5.502;2022-12-16T17:48:15;-0.80;99.90
13982;DHT22;7065;50.880;5.502;2022-12-16T17:51:03;-0.80;99.90
13982;DHT22;7065;50.880;5.502;2022-12-16T17:53:47;-0.80;99.90
13982;DHT22;7065;50.880;5.502;2022-12-16T17:56:31;-0.80;99.90
13982;DHT22;7065;50.880;5.502;2022-12-16T17:59:15;-0.80;99.90
13982;DHT22;7065;50.880;5.502;2022-12-16T18:02:00;-0.80;99.90
13982;DHT22;7065;50.880;5.502;2022-12-16T18:04:44;-0.70;99.90
13982;DHT22;7065;50.880;5.502;2022-12-16T18:07:28;-0.80;99.90
13982;DHT22;7065;50.880;5.502;2022-12-16T18:10:12;-0.80;99.90
13982;DHT22;7065;50.880;5.502;2022-12-16T18:12:56;-0.80;99.90
13982;DHT22;7065;50.880;5.502;2022-12-16T18:15:40;-0.70;99.90
13982;DHT22;7065;50.880;5.502;2022-12-16T18:18:24;-0.80;99.90
13982;DHT22;7065;50.880;5.502;2022-12-16T18:21:13;-0.70;99.90
13982;DHT22;7065;50.880;5.502;2022-12-16T18:23:57;-0.70;99.90
13982;DHT22;7065;50.880;5.502;2022-12-16T18:26:41;-0.70;99.90
13982;DHT22;7065;50.880;5.502;2022-12-16T18:29:25;-0.70;99.90
13982;DHT22;7065;50.880;5.502;2022-12-16T18:32:10;-0.70;99.90
13982;DHT22;7065;50.880;5.502;2022-12-16T18:34:54;-0.70;99.90
13982;DHT22;7065;50.880;5.502;2022-12-16T18:37:55;-0.70;99.90
13982;DHT22;7065;50.880;5.502;2022-12-16T18:40:39;-0.70;99.90
13982;DHT22;7065;50.880;5.502;2022-12-16T18:43:23;-0.70;99.90
13982;DHT22;7065;50.880;5.502;2022-12-16T18:46:08;-0.70;99.90
13982;DHT22;7065;50.880;5.502;2022-12-16T18:48:52;-0.70;99.90
13982;DHT22;7065;50.880;5.502;2022-12-16T18:51:36;-0.60;99.90
13982;DHT22;7065;50.880;5.502;2022-12-16T18:54:20;-0.60;99.90
13982;DHT22;7065;50.880;5.502;2022-12-16T18:57:04;-0.60;99.90
13982;DHT22;7065;50.880;5.502;2022-12-16T18:59:48;-0.60;99.90
13982;DHT22;7065;50.880;5.502;2022-12-16T19:02:32;-0.60;99.90
13982;DHT22;7065;50.880;5.502;2022-12-16T19:05:16;-0.60;99.90
13982;DHT22;7065;50.880;5.502;2022-12-16T19:08:00;-0.60;99.90
13982;DHT22;7065;50.880;5.502;2022-12-16T19:10:44;-0.60;99.90
13982;DHT22;7065;50.880;5.502;2022-12-16T19:13:28;-0.70;99.90
13982;DHT22;7065;50.880;5.502;2022-12-16T19:16:12;-0.70;99.90
13982;DHT22;7065;50.880;5.502;2022-12-16T19:18:57;-0.60;99.90
13982;DHT22;7065;50.880;5.502;2022-12-16T19:21:41;-0.60;99.90
13982;DHT22;7065;50.880;5.502;2022-12-16T19:24:25;-0.60;99.90
13982;DHT22;7065;50.880;5.502;2022-12-16T19:27:09;-0.60;99.90
13982;DHT22;7065;50.880;5.502;2022-12-16T19:29:53;-0.70;99.90
13982;DHT22;7065;50.880;5.502;2022-12-16T19:32:37;-0.70;99.90
13982;DHT22;7065;50.880;5.502;2022-12-16T19:35:21;-0.60;99.90